CYJT

Stephenville Airport

Stephenville, Canada
TAF CYJT 160538Z 1606/1706 35010G20KT P6SM -SHSN OVC025 TEMPO 1606/1615 3SM -SHSN OVC020 BECMG 1608/1610 32005KT FM161500 23008KT P6SM BKN025 TEMPO 1615/1624 4SM -SHSN OVC020 BECMG 1616/1618 21010G20KT FM170000 19015G25KT 2SM -SN BKN020 OVC040 RMK NXT FCST BY 161200Z
Issued Valid From Valid To
Jan-16 @ 05:38 UTC
(15 minutes ago)
Jan-16 @ 06:00 UTC
(in 7 minutes)
Jan-17 @ 06:00 UTC
(in 24 hours)
Jan-16 @ 06:00 to Jan-16 @ 08:00
TAF CYJT 160538Z 1606/1706 35010G20KT P6SM -SHSN OVC025
Wind Visibility Clouds Conditions
350° at 10 knots
 Gusting to 20 knots
Greater than 6 miles
  • Overcast at 2,500' AGL
  • Light Snow
Temporary Jan-16 @ 06:00 to Jan-16 @ 15:00
TEMPO 1606/1615 3SM -SHSN OVC020
Visibility Clouds Conditions
3 miles
  • Overcast at 2,000' AGL
  • Light Snow
Becoming Jan-16 @ 08:00 to Jan-16 @ 15:00
BECMG 1608/1610 32005KT
Wind Visibility Clouds Conditions
320° at 5 knots Greater than 6 miles
  • Overcast at 2,500' AGL
  • Light Snow
From Jan-16 @ 15:00 to Jan-16 @ 16:00
FM161500 23008KT P6SM BKN025
Wind Visibility Clouds
230° at 8 knots Greater than 6 miles
  • Broken at 2,500' AGL
Temporary Jan-16 @ 15:00 to Jan-17 @ 00:00
TEMPO 1615/1624 4SM -SHSN OVC020
Visibility Clouds Conditions
4 miles
  • Overcast at 2,000' AGL
  • Light Snow
Becoming Jan-16 @ 16:00 to Jan-17 @ 00:00
BECMG 1616/1618 21010G20KT
Wind Visibility Clouds
210° at 10 knots
 Gusting to 20 knots
Greater than 6 miles
  • Broken at 2,500' AGL
From Jan-17 @ 00:00 to Jan-17 @ 06:00
FM170000 19015G25KT 2SM -SN BKN020 OVC040 RMK NXT FCST BY 161200Z
Wind Visibility Clouds Conditions
190° at 15 knots
 Gusting to 25 knots
2 miles
  • Broken at 2,000' AGL
  • Overcast at 4,000' AGL
  • Light Snow
TAF CYJT 160538Z 1606/1706 35010G20KT P6SM -SHSN OVC025 TEMPO 1606/1615 3SM -SHSN OVC020 BECMG 1608/1610 32005KT FM161500 23008KT P6SM BKN025 TEMPO 1615/1624 4SM -SHSN OVC020 BECMG 1616/1618 21010G20KT FM170000 19015G25KT 2SM -SN BKN020 OVC040 RMK NXT FCST BY 161200Z
Issued Jan-16 @ 05:38 UTC
(15 minutes ago)
Valid From Jan-16 @ 06:00 UTC
(in 7 minutes)
Valid To Jan-17 @ 06:00 UTC
(in 24 hours)
Jan-16 @ 06:00 - Jan-16 @ 08:00
Wind Visibility
350° at 10 knots
 Gusting to 20 knots
Greater than 6 miles
Clouds
  • Overcast at 2,500' AGL
Conditions
  • Light Snow
Temporary Jan-16 @ 06:00 - Jan-16 @ 15:00
Clouds
  • Overcast at 2,000' AGL
Conditions
  • Light Snow
Becoming Jan-16 @ 08:00 - Jan-16 @ 15:00
Wind Visibility
320° at 5 knots Greater than 6 miles
Clouds
  • Overcast at 2,500' AGL
Conditions
  • Light Snow
From Jan-16 @ 15:00 - Jan-16 @ 16:00
Wind Visibility
230° at 8 knots Greater than 6 miles
Clouds
  • Broken at 2,500' AGL
Temporary Jan-16 @ 15:00 - Jan-17 @ 00:00
Clouds
  • Overcast at 2,000' AGL
Conditions
  • Light Snow
Becoming Jan-16 @ 16:00 - Jan-17 @ 00:00
Wind Visibility
210° at 10 knots
 Gusting to 20 knots
Greater than 6 miles
Clouds
  • Broken at 2,500' AGL
From Jan-17 @ 00:00 - Jan-17 @ 06:00
Wind Visibility
190° at 15 knots
 Gusting to 25 knots
2 miles
Clouds
  • Broken at 2,000' AGL
  • Overcast at 4,000' AGL
Conditions
  • Light Snow